Time;durP1;ratioP1;P1;durP2;ratioP2;P2;SDS_P1;SDS_P2;PMS_P1;PMS_P2;Temp;Humidity;BMP_temperature;BMP_pressure;BME280_temperature;BME280_humidity;BME280_pressure;Samples;Min_cycle;Max_cycle;Signal;HPM_P1;HPM_P2
2023/03/09 00:02:22;;;;;;;5.13;0.90;;;29.00;74.10;;;;;;5044828;28;20653;-68
2023/03/09 00:04:49;;;;;;;1.13;0.70;;;29.80;71.40;;;;;;5052905;28;20690;-69
2023/03/09 00:07:17;;;;;;;3.13;0.80;;;29.70;74.40;;;;;;5051833;28;20243;-69
2023/03/09 00:09:44;;;;;;;1.90;0.70;;;29.70;70.90;;;;;;5052834;28;20203;-69
2023/03/09 00:12:12;;;;;;;2.40;0.80;;;29.20;68.80;;;;;;5052498;28;20177;-68
2023/03/09 00:14:40;;;;;;;10.23;0.97;;;29.90;66.10;;;;;;5046564;28;20635;-69
2023/03/09 00:17:07;;;;;;;3.65;0.60;;;30.50;65.60;;;;;;5035760;28;20185;-69
2023/03/09 00:19:35;;;;;;;5.50;1.05;;;30.60;68.80;;;;;;5050094;28;20315;-68
2023/03/09 00:22:03;;;;;;;5.72;0.85;;;31.30;65.10;;;;;;5044508;28;20625;-69
2023/03/09 00:24:30;;;;;;;2.10;0.70;;;31.60;64.60;;;;;;5036717;28;20224;-68
2023/03/09 00:27:00;;;;;;;3.85;0.90;;;31.00;59.40;;;;;;5049877;28;20307;-70
2023/03/09 00:29:30;;;;;;;3.13;0.77;;;30.50;58.30;;;;;;5050295;28;20277;-69
2023/03/09 00:31:58;;;;;;;3.65;0.60;;;30.40;58.90;;;;;;5049919;28;20235;-69
2023/03/09 00:34:26;;;;;;;3.13;0.57;;;30.30;57.50;;;;;;5050765;28;20184;-69
2023/03/09 00:36:53;;;;;;;6.95;0.85;;;30.30;53.80;;;;;;5051310;28;20177;-69
2023/03/09 00:39:21;;;;;;;1.55;0.60;;;30.80;55.80;;;;;;5048612;28;20187;-68
2023/03/09 00:41:48;;;;;;;2.88;0.80;;;31.30;54.30;;;;;;5051735;28;20179;-69
2023/03/09 00:44:16;;;;;;;5.32;0.77;;;32.10;51.80;;;;;;5051211;28;20192;-68
2023/03/09 00:46:43;;;;;;;1.75;0.60;;;32.00;50.80;;;;;;5048326;28;20199;-68
2023/03/09 00:49:15;;;;;;;2.80;0.82;;;32.10;51.30;;;;;;5051345;28;20630;-68
2023/03/09 00:51:43;;;;;;;2.60;0.63;;;32.10;50.90;;;;;;5048653;28;20176;-68
2023/03/09 00:54:12;;;;;;;2.88;0.50;;;32.20;50.70;;;;;;5050650;28;20627;-68
2023/03/09 00:56:40;;;;;;;3.40;0.60;;;32.20;40.50;;;;;;5051444;28;20707;-69
2023/03/09 00:59:08;;;;;;;2.28;0.80;;;32.30;41.80;;;;;;5049069;28;20230;-68
2023/03/09 01:01:35;;;;;;;9.70;0.50;;;32.70;42.60;;;;;;5050304;28;20222;-68
2023/03/09 01:04:03;;;;;;;2.60;0.45;;;32.30;40.50;;;;;;5048388;28;20184;-68
2023/03/09 01:06:31;;;;;;;1.20;0.40;;;31.90;36.80;;;;;;5050921;28;20267;-69
2023/03/09 01:08:58;;;;;;;1.13;0.40;;;32.70;42.50;;;;;;5046851;28;20610;-69
2023/03/09 01:11:26;;;;;;;1.67;0.50;;;33.60;38.90;;;;;;5046227;28;20648;-69
2023/03/09 01:13:54;;;;;;;2.47;0.68;;;33.70;35.40;;;;;;5038188;28;20227;-68
2023/03/09 01:16:22;;;;;;;1.63;0.70;;;32.90;35.20;;;;;;5049423;28;20227;-69
2023/03/09 01:18:49;;;;;;;2.72;0.50;;;32.40;33.80;;;;;;5050131;28;20600;-68
2023/03/09 01:21:17;;;;;;;1.45;0.60;;;32.00;33.10;;;;;;5048614;28;20200;-69
2023/03/09 01:23:44;;;;;;;1.90;0.57;;;32.00;32.70;;;;;;5050091;28;20208;-69
2023/03/09 01:26:12;;;;;;;1.77;0.43;;;32.00;34.70;;;;;;5051753;28;20177;-68
2023/03/09 01:28:39;;;;;;;4.97;0.60;;;32.50;36.60;;;;;;5041768;28;20225;-69
2023/03/09 01:31:10;;;;;;;3.30;0.52;;;32.50;32.10;;;;;;5043820;28;20245;-68
2023/03/09 01:33:38;;;;;;;2.85;0.70;;;32.10;32.10;;;;;;5050103;28;20241;-69
2023/03/09 01:36:07;;;;;;;5.63;0.60;;;31.40;29.20;;;;;;5050383;28;20314;-68
2023/03/09 01:38:35;;;;;;;2.13;0.50;;;31.80;28.10;;;;;;5042985;28;20181;-68
2023/03/09 01:44:25;;;;;;;2.28;0.75;;;32.00;30.30;;;;;;5033875;28;20262;-68
2023/03/09 01:46:56;;;;;;;3.90;0.60;;;32.10;29.80;;;;;;5038249;28;20235;-70
2023/03/09 01:49:38;;;;;;;5.82;0.73;;;32.00;29.00;;;;;;5050744;28;20203;-69
2023/03/09 01:52:25;;;;;;;2.42;0.80;;;31.70;29.60;;;;;;5047860;28;20233;-69
2023/03/09 01:55:13;;;;;;;2.58;0.73;;;31.50;29.10;;;;;;5037435;28;20261;-68
2023/03/09 01:57:48;;;;;;;6.15;0.95;;;32.10;30.30;;;;;;5049368;28;20180;-68
2023/03/09 02:00:19;;;;;;;2.85;0.43;;;32.30;28.40;;;;;;5050004;28;20188;-69
2023/03/09 02:02:55;;;;;;;3.45;0.60;;;32.90;27.60;;;;;;5050059;28;20246;-69
2023/03/09 02:05:46;;;;;;;1.30;0.30;;;32.40;27.80;;;;;;5050733;28;20176;-69
2023/03/09 02:08:14;;;;;;;3.40;0.70;;;32.20;27.40;;;;;;5048674;28;20230;-69
2023/03/09 02:10:48;;;;;;;1.73;0.80;;;32.10;26.90;;;;;;5045092;28;20177;-70
2023/03/09 02:13:18;;;;;;;1.40;0.50;;;32.10;27.60;;;;;;5064923;28;20219;-70
2023/03/09 02:15:46;;;;;;;4.65;0.60;;;32.50;27.10;;;;;;5048363;28;20199;-71
2023/03/09 02:18:13;;;;;;;6.05;0.75;;;32.70;26.80;;;;;;5050584;28;20180;-70
2023/03/09 02:21:08;;;;;;;1.55;0.50;;;33.00;26.40;;;;;;5049080;28;20229;-71
2023/03/09 02:23:45;;;;;;;1.88;0.55;;;33.60;26.70;;;;;;5042055;28;20675;-69
2023/03/09 02:26:27;;;;;;;1.33;0.40;;;33.40;26.60;;;;;;5043383;28;20176;-69
2023/03/09 02:28:55;;;;;;;3.88;0.70;;;33.20;24.10;;;;;;5043653;28;20224;-72
2023/03/09 02:31:22;;;;;;;2.80;0.57;;;32.40;24.40;;;;;;5032007;28;20181;-72
2023/03/09 02:33:53;;;;;;;1.17;0.40;;;32.10;24.80;;;;;;5047280;28;20217;-69
2023/03/09 02:36:23;;;;;;;5.47;0.85;;;32.30;23.40;;;;;;5036968;28;20181;-73
2023/03/09 02:38:51;;;;;;;3.42;0.70;;;32.10;21.10;;;;;;5046487;28;20184;-73
2023/03/09 02:41:19;;;;;;;1.50;0.60;;;32.80;23.00;;;;;;5046996;28;20188;-72
2023/03/09 02:43:53;;;;;;;3.03;0.60;;;33.10;22.10;;;;;;5054008;28;20204;-72
2023/03/09 02:46:21;;;;;;;3.28;0.60;;;33.00;22.80;;;;;;5038214;28;20183;-70
2023/03/09 02:48:48;;;;;;;1.30;0.40;;;32.60;20.20;;;;;;5054458;28;20231;-73
2023/03/09 02:51:15;;;;;;;1.30;0.57;;;32.20;22.10;;;;;;5053819;28;20177;-74
2023/03/09 02:53:43;;;;;;;1.50;0.63;;;32.10;21.80;;;;;;5038534;28;20189;-71
2023/03/09 02:56:11;;;;;;;2.15;0.52;;;32.50;21.30;;;;;;5052934;28;20187;-73
2023/03/09 02:58:38;;;;;;;2.85;0.75;;;32.90;24.50;;;;;;5047757;28;20186;-74
2023/03/09 03:01:06;;;;;;;4.20;0.50;;;32.70;20.70;;;;;;5044679;28;20176;-73
2023/03/09 03:03:33;;;;;;;3.55;0.57;;;32.70;22.70;;;;;;5051261;28;20639;-73
2023/03/09 03:06:01;;;;;;;2.05;0.60;;;32.40;20.90;;;;;;5052594;28;20250;-73
2023/03/09 03:08:30;;;;;;;0.82;0.40;;;32.40;22.20;;;;;;5049315;28;20303;-73
2023/03/09 03:10:57;;;;;;;2.70;0.80;;;32.00;21.60;;;;;;5049679;28;20184;-70
2023/03/09 03:13:25;;;;;;;2.60;0.60;;;31.70;21.20;;;;;;5048592;28;20204;-72
2023/03/09 03:16:02;;;;;;;2.45;0.45;;;31.80;22.30;;;;;;5050519;28;20189;-69
2023/03/09 03:18:30;;;;;;;2.50;0.40;;;32.10;20.90;;;;;;5050383;28;20208;-70
2023/03/09 03:20:58;;;;;;;2.22;0.40;;;32.40;21.80;;;;;;5051269;28;21673;-71
2023/03/09 03:23:26;;;;;;;6.57;0.52;;;33.10;22.10;;;;;;5049772;28;20212;-72
2023/03/09 03:25:53;;;;;;;3.30;0.40;;;33.70;24.30;;;;;;5048542;28;20203;-71
2023/03/09 03:28:20;;;;;;;3.58;0.55;;;33.40;22.70;;;;;;5062390;28;20628;-73
2023/03/09 03:30:52;;;;;;;3.42;1.00;;;33.60;21.10;;;;;;5052366;28;20211;-70
2023/03/09 03:33:19;;;;;;;2.13;0.70;;;33.30;20.40;;;;;;5050431;28;20307;-68
2023/03/09 03:35:47;;;;;;;1.92;0.50;;;33.10;21.10;;;;;;5052162;28;20192;-68
2023/03/09 03:38:14;;;;;;;1.85;0.50;;;33.40;22.40;;;;;;5053483;28;20255;-70
2023/03/09 03:40:41;;;;;;;2.08;0.60;;;33.70;21.20;;;;;;5053142;28;20238;-72
2023/03/09 03:43:09;;;;;;;1.05;0.50;;;33.70;21.40;;;;;;5053662;28;20668;-69
2023/03/09 03:45:36;;;;;;;2.70;0.50;;;33.50;21.30;;;;;;5053396;28;20587;-67
2023/03/09 03:48:04;;;;;;;2.22;0.75;;;33.50;20.80;;;;;;5050999;28;20669;-67
2023/03/09 03:50:31;;;;;;;2.20;0.43;;;33.40;22.00;;;;;;5064217;28;20219;-67
2023/03/09 03:56:21;;;;;;;3.05;0.88;;;33.70;19.20;;;;;;5032635;28;20184;-69
2023/03/09 03:58:48;;;;;;;1.88;1.35;;;33.80;19.40;;;;;;5036768;28;20176;-67
2023/03/09 04:01:16;;;;;;;2.75;0.50;;;33.60;18.40;;;;;;5051242;28;20185;-68
2023/03/09 04:03:43;;;;;;;1.17;0.30;;;32.80;18.60;;;;;;5050948;28;20189;-68
2023/03/09 04:06:10;;;;;;;3.30;0.70;;;32.80;19.10;;;;;;5051983;28;20187;-68
2023/03/09 04:08:38;;;;;;;1.00;0.50;;;32.70;20.50;;;;;;5052303;28;20579;-70
2023/03/09 04:11:09;;;;;;;5.57;0.65;;;32.60;19.50;;;;;;5051622;28;20193;-69
2023/03/09 04:13:36;;;;;;;1.00;0.35;;;32.30;18.40;;;;;;5051637;28;20185;-69
2023/03/09 04:16:04;;;;;;;3.70;0.60;;;32.20;18.50;;;;;;5049759;28;20188;-69
2023/03/09 04:18:32;;;;;;;6.00;0.55;;;32.10;17.20;;;;;;5049375;28;20193;-70
2023/03/09 04:21:01;;;;;;;1.80;0.53;;;31.90;18.20;;;;;;5052208;28;20338;-69
2023/03/09 04:23:28;;;;;;;2.45;0.63;;;32.00;19.00;;;;;;5051478;28;20245;-70
2023/03/09 04:25:58;;;;;;;1.38;0.35;;;32.40;19.00;;;;;;5049402;28;20184;-70
2023/03/09 04:28:27;;;;;;;8.05;2.10;;;32.30;18.30;;;;;;5052533;28;20223;-71
2023/03/09 04:30:56;;;;;;;10.30;2.20;;;32.40;20.60;;;;;;5051393;28;20188;-73
2023/03/09 04:33:24;;;;;;;2.15;0.73;;;32.50;21.40;;;;;;5050676;28;20241;-72
2023/03/09 04:35:52;;;;;;;9.23;1.60;;;32.40;25.00;;;;;;5051302;28;20242;-73
2023/03/09 04:38:19;;;;;;;4.85;0.73;;;32.30;24.40;;;;;;5047349;28;20189;-72
2023/03/09 04:40:47;;;;;;;1.33;0.50;;;32.50;21.50;;;;;;5032124;28;20209;-70
2023/03/09 04:43:15;;;;;;;1.50;0.75;;;32.60;18.10;;;;;;5032082;28;20186;-70
2023/03/09 04:45:43;;;;;;;2.17;0.52;;;32.40;18.00;;;;;;5041466;28;20322;-75
2023/03/09 04:48:11;;;;;;;1.58;0.50;;;32.10;16.10;;;;;;5051951;28;20220;-70
2023/03/09 04:50:38;;;;;;;3.38;0.60;;;32.00;21.80;;;;;;5051227;28;20555;-69
2023/03/09 04:56:28;;;;;;;5.35;0.80;;;32.10;23.10;;;;;;5048802;28;20326;-68
2023/03/09 04:58:56;;;;;;;3.20;1.08;;;31.70;27.70;;;;;;5049060;28;20204;-68
2023/03/09 05:01:24;;;;;;;4.67;1.13;;;31.60;30.00;;;;;;5051297;28;20180;-67
2023/03/09 05:03:55;;;;;;;4.73;0.90;;;31.10;31.30;;;;;;5051082;28;20181;-70
2023/03/09 05:06:23;;;;;;;4.37;0.93;;;30.80;32.40;;;;;;5048173;28;21049;-68
2023/03/09 05:08:51;;;;;;;6.13;1.03;;;30.50;31.40;;;;;;5050690;28;20677;-70
2023/03/09 05:11:19;;;;;;;5.37;0.93;;;30.40;33.10;;;;;;5050544;28;20188;-70
2023/03/09 05:13:47;;;;;;;2.93;1.00;;;30.30;34.00;;;;;;5051533;28;20191;-70
2023/03/09 05:16:14;;;;;;;3.03;1.00;;;30.10;36.60;;;;;;5047961;28;20299;-73
2023/03/09 05:18:42;;;;;;;6.07;1.30;;;30.10;36.00;;;;;;5039492;28;20596;-71
2023/03/09 05:21:10;;;;;;;3.23;1.10;;;29.80;36.50;;;;;;5029389;28;20229;-69
2023/03/09 05:23:38;;;;;;;5.27;0.80;;;29.70;36.10;;;;;;5034143;28;20204;-68
2023/03/09 05:26:07;;;;;;;2.60;0.90;;;29.70;37.50;;;;;;5065941;28;20542;-71
2023/03/09 05:28:37;;;;;;;5.60;1.20;;;29.60;38.90;;;;;;5049861;28;20219;-72
2023/03/09 05:31:10;;;;;;;5.63;1.03;;;29.70;39.70;;;;;;5051582;28;20641;-68
2023/03/09 05:33:39;;;;;;;8.83;1.17;;;29.70;40.40;;;;;;5048829;28;20264;-68
2023/03/09 05:36:29;;;;;;;3.57;1.10;;;29.40;38.70;;;;;;5031216;28;20192;-70
2023/03/09 05:38:58;;;;;;;5.70;1.63;;;29.20;40.00;;;;;;5047995;28;20188;-67
2023/03/09 05:41:26;;;;;;;4.97;1.90;;;29.10;41.00;;;;;;5051057;28;20176;-68
2023/03/09 05:43:54;;;;;;;4.80;1.23;;;29.00;40.50;;;;;;5049146;28;20188;-73
2023/03/09 05:46:23;;;;;;;11.17;1.80;;;28.80;42.10;;;;;;5047376;28;20188;-71
2023/03/09 05:48:50;;;;;;;5.53;1.00;;;28.70;43.00;;;;;;5047709;28;20223;-70
2023/03/09 05:51:19;;;;;;;5.33;1.03;;;28.70;45.00;;;;;;5047936;28;20277;-69
2023/03/09 05:53:47;;;;;;;3.07;1.27;;;28.40;41.00;;;;;;5050541;28;20226;-70
2023/03/09 05:56:14;;;;;;;3.20;1.00;;;28.20;45.60;;;;;;5050833;28;20183;-70
2023/03/09 05:58:42;;;;;;;4.67;1.30;;;27.80;44.90;;;;;;5049966;28;20192;-70
2023/03/09 06:01:22;;;;;;;3.17;1.00;;;27.50;46.20;;;;;;5047341;28;20525;-71
2023/03/09 06:03:49;;;;;;;2.33;0.90;;;27.60;50.50;;;;;;5049732;28;20199;-73
2023/03/09 06:06:18;;;;;;;6.50;1.00;;;27.60;49.50;;;;;;5050553;28;20219;-71
2023/03/09 06:08:45;;;;;;;4.47;0.90;;;27.70;49.30;;;;;;5048849;28;20226;-72
2023/03/09 06:11:13;;;;;;;2.27;0.93;;;27.90;50.10;;;;;;5050782;28;20192;-69
2023/03/09 06:13:41;;;;;;;4.87;1.13;;;27.90;48.80;;;;;;5052873;28;20667;-71
2023/03/09 06:16:15;;;;;;;6.13;1.30;;;27.70;49.30;;;;;;5054198;28;20185;-70
2023/03/09 06:18:44;;;;;;;3.43;0.90;;;27.70;49.20;;;;;;5054292;28;20350;-72
2023/03/09 06:21:12;;;;;;;5.90;1.30;;;27.60;47.60;;;;;;5055653;28;20220;-69
2023/03/09 06:23:40;;;;;;;2.43;0.80;;;27.70;46.70;;;;;;5053630;28;20281;-71
2023/03/09 06:26:11;;;;;;;7.10;1.37;;;27.70;47.40;;;;;;5055105;28;20634;-71
2023/03/09 06:28:39;;;;;;;6.00;1.10;;;27.60;45.70;;;;;;5053586;28;20215;-71
2023/03/09 06:31:13;;;;;;;3.50;1.00;;;27.50;45.50;;;;;;5054009;28;20298;-70
2023/03/09 06:33:41;;;;;;;6.97;1.23;;;27.50;47.90;;;;;;5046892;28;20184;-72
2023/03/09 06:36:11;;;;;;;3.77;1.00;;;27.60;47.40;;;;;;5053311;28;20184;-70
2023/03/09 06:38:39;;;;;;;7.20;1.10;;;27.60;45.00;;;;;;5052065;28;20185;-71
2023/03/09 06:44:29;;;;;;;5.67;1.30;;;27.60;45.00;;;;;;5053406;28;20215;-71
2023/03/09 06:46:57;;;;;;;5.40;0.90;;;27.60;45.30;;;;;;5053495;28;20272;-71
2023/03/09 06:49:24;;;;;;;5.40;1.30;;;27.50;45.90;;;;;;5053276;28;20254;-70
2023/03/09 06:51:52;;;;;;;4.57;1.30;;;27.50;47.40;;;;;;5053816;28;20255;-70
2023/03/09 06:54:20;;;;;;;4.87;1.10;;;27.60;47.50;;;;;;5053572;28;20211;-70
2023/03/09 06:56:48;;;;;;;4.97;1.20;;;27.50;46.30;;;;;;5053620;28;20173;-69
2023/03/09 06:59:16;;;;;;;5.30;1.20;;;27.20;47.50;;;;;;5053384;28;20701;-71
2023/03/09 07:01:47;;;;;;;3.67;1.47;;;27.30;47.10;;;;;;5051656;28;20268;-70
2023/03/09 07:04:17;;;;;;;5.50;1.20;;;27.20;49.70;;;;;;5054119;28;20184;-69
2023/03/09 07:06:45;;;;;;;2.57;0.80;;;27.20;49.20;;;;;;5053571;28;20181;-69
2023/03/09 07:09:12;;;;;;;4.97;1.10;;;26.90;49.00;;;;;;5052753;28;20263;-70
2023/03/09 07:11:40;;;;;;;3.40;1.20;;;26.80;47.60;;;;;;5054317;28;20544;-70
2023/03/09 07:14:08;;;;;;;7.40;1.57;;;26.60;49.30;;;;;;5034358;28;20284;-72
2023/03/09 07:16:36;;;;;;;6.37;1.23;;;26.30;49.30;;;;;;5034276;28;20185;-69
2023/03/09 07:19:04;;;;;;;7.57;1.70;;;26.20;49.60;;;;;;5033567;28;20498;-70
2023/03/09 07:21:32;;;;;;;4.53;1.03;;;26.00;50.20;;;;;;5033653;28;20299;-69
2023/03/09 07:23:59;;;;;;;8.47;1.20;;;25.80;50.40;;;;;;5043236;28;20195;-69
2023/03/09 07:26:27;;;;;;;2.90;0.97;;;25.50;51.70;;;;;;5051582;28;20318;-69
2023/03/09 07:28:55;;;;;;;3.50;1.07;;;25.20;53.10;;;;;;5052572;28;20624;-71
2023/03/09 07:31:23;;;;;;;4.27;0.97;;;25.20;56.00;;;;;;5045444;28;20192;-70
2023/03/09 07:33:51;;;;;;;2.43;1.00;;;25.10;55.70;;;;;;5034024;28;20173;-70
2023/03/09 07:36:19;;;;;;;4.77;1.10;;;25.10;56.60;;;;;;5033906;28;20547;-70
2023/03/09 07:38:47;;;;;;;4.67;1.20;;;25.00;55.00;;;;;;5050446;28;20180;-70
2023/03/09 07:41:16;;;;;;;6.50;1.57;;;24.90;56.30;;;;;;5034064;28;20268;-71
2023/03/09 07:43:44;;;;;;;3.57;1.00;;;24.90;56.10;;;;;;5048352;28;20188;-71
2023/03/09 07:46:13;;;;;;;4.67;1.40;;;24.80;55.00;;;;;;5034468;28;20208;-71
2023/03/09 07:52:03;;;;;;;5.07;1.30;;;24.70;56.10;;;;;;5032830;28;20298;-71
2023/03/09 07:54:32;;;;;;;4.80;1.30;;;24.60;59.70;;;;;;5051859;28;20588;-71
2023/03/09 07:57:00;;;;;;;4.93;1.10;;;24.50;64.40;;;;;;5053127;28;20215;-72
2023/03/09 07:59:28;;;;;;;6.07;1.20;;;24.40;70.20;;;;;;5052169;28;20196;-72
2023/03/09 08:01:56;;;;;;;3.53;1.00;;;24.30;79.30;;;;;;5052968;28;20588;-73
2023/03/09 08:04:25;;;;;;;2.97;1.27;;;24.20;86.20;;;;;;5052550;28;20199;-71
2023/03/09 08:06:53;;;;;;;3.17;1.07;;;24.00;90.30;;;;;;5051130;28;20570;-71
2023/03/09 08:09:21;;;;;;;10.17;1.20;;;24.00;93.60;;;;;;5048265;28;20232;-71
2023/03/09 08:11:49;;;;;;;4.63;1.10;;;24.00;95.60;;;;;;5033229;28;20292;-71
2023/03/09 08:14:16;;;;;;;4.57;1.03;;;23.90;98.60;;;;;;5051876;28;20231;-71
2023/03/09 08:16:44;;;;;;;4.50;1.10;;;23.80;99.90;;;;;;5050079;28;20177;-71
2023/03/09 08:19:12;;;;;;;5.57;1.10;;;23.60;99.90;;;;;;5052959;28;20272;-72
2023/03/09 08:21:40;;;;;;;3.80;0.90;;;23.60;99.90;;;;;;5035123;28;20193;-71
2023/03/09 08:24:08;;;;;;;3.03;0.80;;;23.50;99.90;;;;;;5048271;28;20184;-71
2023/03/09 08:26:36;;;;;;;2.30;1.10;;;23.50;99.90;;;;;;5041989;28;20231;-72
2023/03/09 08:29:03;;;;;;;7.20;1.17;;;23.40;99.90;;;;;;5048571;28;20311;-72
2023/03/09 08:31:31;;;;;;;6.67;1.27;;;23.30;99.90;;;;;;5041692;28;20311;-72
2023/03/09 08:34:00;;;;;;;4.23;1.10;;;23.30;99.90;;;;;;5035379;28;20263;-71
2023/03/09 08:36:27;;;;;;;1.90;0.90;;;23.20;99.90;;;;;;5052610;28;20184;-71
2023/03/09 08:38:56;;;;;;;3.87;1.20;;;23.20;99.90;;;;;;5050801;28;20177;-70
2023/03/09 08:41:24;;;;;;;3.90;1.10;;;23.10;99.90;;;;;;5051615;28;20272;-69
2023/03/09 08:43:56;;;;;;;3.73;1.20;;;23.00;99.90;;;;;;5052578;28;20527;-70
2023/03/09 08:46:23;;;;;;;4.30;1.10;;;23.00;99.90;;;;;;5049225;28;20203;-70
2023/03/09 08:48:51;;;;;;;6.77;1.47;;;22.90;99.90;;;;;;5051045;28;20227;-70
2023/03/09 08:51:20;;;;;;;3.13;0.97;;;22.80;99.90;;;;;;5052284;28;20194;-70
2023/03/09 08:53:48;;;;;;;5.83;1.17;;;22.70;99.90;;;;;;5052050;28;20220;-70
2023/03/09 08:56:16;;;;;;;4.70;1.10;;;22.60;99.90;;;;;;5046238;28;20667;-71
2023/03/09 08:58:47;;;;;;;5.73;1.20;;;22.50;99.90;;;;;;5032473;28;20181;-70
2023/03/09 09:01:14;;;;;;;4.93;1.40;;;22.40;99.90;;;;;;5034262;28;20227;-70
2023/03/09 09:03:42;;;;;;;6.13;1.30;;;22.30;99.90;;;;;;5052091;28;20680;-70
2023/03/09 09:06:13;;;;;;;6.07;1.30;;;22.30;99.90;;;;;;5051168;28;20755;-70
2023/03/09 09:08:42;;;;;;;4.73;1.50;;;22.30;99.90;;;;;;5051495;28;20215;-71
2023/03/09 09:11:12;;;;;;;2.63;1.10;;;22.30;99.90;;;;;;5051183;28;20662;-71
2023/03/09 09:13:41;;;;;;;5.50;1.20;;;22.20;99.90;;;;;;5052108;28;20667;-70
2023/03/09 09:16:10;;;;;;;2.90;1.00;;;22.10;99.90;;;;;;5033014;28;20216;-71
2023/03/09 09:18:38;;;;;;;3.60;1.30;;;22.00;99.90;;;;;;5051378;28;20193;-70
2023/03/09 09:21:12;;;;;;;5.47;1.30;;;22.00;99.90;;;;;;5051876;28;20309;-71
2023/03/09 09:23:41;;;;;;;7.87;1.33;;;21.90;99.90;;;;;;5050629;28;20676;-70
2023/03/09 09:26:11;;;;;;;3.47;1.20;;;21.90;99.90;;;;;;5049662;28;20181;-70
2023/03/09 09:28:39;;;;;;;4.87;1.13;;;21.80;99.90;;;;;;5033503;28;20216;-70
2023/03/09 09:31:09;;;;;;;6.00;1.23;;;21.80;99.90;;;;;;5050434;28;20181;-71
2023/03/09 09:33:37;;;;;;;7.27;1.57;;;21.70;99.90;;;;;;5049517;28;20184;-70
2023/03/09 09:36:11;;;;;;;2.73;1.27;;;21.70;99.90;;;;;;5050683;28;20275;-70
2023/03/09 09:38:39;;;;;;;4.20;1.20;;;21.70;99.90;;;;;;5052605;28;20177;-70
2023/03/09 09:41:30;;;;;;;5.03;1.30;;;21.60;99.90;;;;;;5052766;28;20217;-70
2023/03/09 09:44:02;;;;;;;3.13;1.50;;;21.40;99.90;;;;;;5051569;28;20239;-71
2023/03/09 09:46:31;;;;;;;4.07;1.30;;;21.40;99.90;;;;;;5046498;28;20184;-70
2023/03/09 09:49:01;;;;;;;2.97;1.30;;;21.30;99.90;;;;;;5051270;28;20214;-70
2023/03/09 09:51:56;;;;;;;3.70;1.20;;;21.20;99.90;;;;;;5051190;28;20173;-71
2023/03/09 09:54:30;;;;;;;8.57;1.70;;;21.10;99.90;;;;;;5050722;28;20184;-70
2023/03/09 09:57:09;;;;;;;2.80;1.33;;;21.00;99.90;;;;;;5049911;28;20180;-70
2023/03/09 10:00:14;;;;;;;4.13;1.43;;;20.90;99.90;;;;;;5051966;28;20533;-70
2023/03/09 10:03:18;;;;;;;3.00;1.40;;;20.90;99.90;;;;;;5049005;28;20256;-70
2023/03/09 10:06:16;;;;;;;7.60;1.43;;;20.90;99.90;;;;;;5050210;28;20279;-70
2023/03/09 10:09:11;;;;;;;4.03;1.27;;;20.80;99.90;;;;;;5048645;28;20227;-70
2023/03/09 10:11:52;;;;;;;5.07;1.47;;;20.80;99.90;;;;;;5049737;28;20188;-70
2023/03/09 10:14:34;;;;;;;9.77;1.40;;;20.70;99.90;;;;;;5048375;28;20184;-71
2023/03/09 10:17:34;;;;;;;5.00;1.83;;;20.70;99.90;;;;;;5051430;28;20169;-70
2023/03/09 10:20:31;;;;;;;6.40;2.00;;;20.60;99.90;;;;;;5051920;28;20228;-71
2023/03/09 10:22:59;;;;;;;6.43;1.73;;;20.50;99.90;;;;;;5052000;28;20257;-70
2023/03/09 10:25:32;;;;;;;5.37;1.73;;;20.50;99.90;;;;;;5052030;28;20532;-70
2023/03/09 10:28:11;;;;;;;6.50;1.27;;;20.50;99.90;;;;;;5051897;28;20293;-70
2023/03/09 10:31:08;;;;;;;5.60;1.60;;;20.40;99.90;;;;;;5051960;28;20252;-70
2023/03/09 10:33:44;;;;;;;3.43;1.40;;;20.30;99.90;;;;;;5052295;28;20260;-70
2023/03/09 10:36:21;;;;;;;1.70;1.30;;;20.30;99.90;;;;;;5052027;28;20259;-70
2023/03/09 10:38:56;;;;;;;8.17;1.60;;;20.30;99.90;;;;;;5051941;28;20684;-71
2023/03/09 10:41:24;;;;;;;4.53;1.70;;;20.30;99.90;;;;;;5051883;28;20187;-70
2023/03/09 10:43:58;;;;;;;3.80;1.33;;;20.20;99.90;;;;;;5048576;28;20188;-73
2023/03/09 10:46:26;;;;;;;6.27;1.87;;;20.10;99.90;;;;;;5043262;28;20189;-69
2023/03/09 10:49:14;;;;;;;8.10;1.53;;;20.00;99.90;;;;;;5049800;28;20216;-71
2023/03/09 10:51:58;;;;;;;5.90;1.90;;;20.00;99.90;;;;;;5031917;28;20267;-72
2023/03/09 10:54:39;;;;;;;4.30;1.57;;;20.00;99.90;;;;;;5036822;28;20191;-70
2023/03/09 10:57:54;;;;;;;5.93;1.37;;;20.00;99.90;;;;;;5052362;28;20207;-72
2023/03/09 11:00:22;;;;;;;7.87;1.87;;;19.90;99.90;;;;;;5030577;28;20658;-72
2023/03/09 11:02:55;;;;;;;4.87;2.00;;;19.90;99.90;;;;;;5051255;28;20281;-71
2023/03/09 11:05:29;;;;;;;3.07;1.43;;;19.80;99.90;;;;;;5054465;28;20699;-72
2023/03/09 11:08:02;;;;;;;4.17;1.47;;;19.70;99.90;;;;;;5054874;28;20208;-72
2023/03/09 11:10:35;;;;;;;9.93;2.37;;;19.60;99.90;;;;;;5055032;28;20256;-71
2023/03/09 11:13:04;;;;;;;6.03;1.93;;;19.70;99.90;;;;;;5052845;28;20213;-71
2023/03/09 11:15:40;;;;;;;5.40;2.03;;;19.70;99.90;;;;;;5052928;28;20184;-70
2023/03/09 11:18:28;;;;;;;9.50;2.47;;;19.60;99.90;;;;;;5035236;28;20209;-72
2023/03/09 11:20:56;;;;;;;6.00;2.37;;;19.50;99.90;;;;;;5049573;28;20717;-71
2023/03/09 11:23:27;;;;;;;8.47;2.37;;;19.50;99.90;;;;;;5042617;28;20235;-71
2023/03/09 11:26:29;;;;;;;6.57;2.00;;;19.50;99.90;;;;;;5034329;28;20233;-71
2023/03/09 11:29:28;;;;;;;3.80;2.00;;;19.50;99.90;;;;;;5033700;28;20259;-71
2023/03/09 11:31:58;;;;;;;7.03;2.63;;;19.50;99.90;;;;;;5050684;28;20188;-72
2023/03/09 11:34:32;;;;;;;7.13;1.83;;;19.40;99.90;;;;;;5052558;28;20250;-72
2023/03/09 11:37:02;;;;;;;7.33;2.80;;;19.40;99.90;;;;;;5051502;28;20660;-71
2023/03/09 11:40:10;;;;;;;6.17;2.43;;;19.30;99.90;;;;;;5051756;28;20194;-71
2023/03/09 11:42:53;;;;;;;6.50;2.10;;;19.30;99.90;;;;;;5054360;28;20171;-70
2023/03/09 11:45:30;;;;;;;10.20;2.53;;;19.20;99.90;;;;;;5053841;28;20184;-71
2023/03/09 11:48:27;;;;;;;6.07;2.20;;;19.20;99.90;;;;;;5050387;28;20216;-72
2023/03/09 11:51:04;;;;;;;7.43;1.93;;;19.10;99.90;;;;;;5034294;28;20190;-70
2023/03/09 11:53:50;;;;;;;6.23;2.30;;;19.10;99.90;;;;;;5034868;28;20263;-71
2023/03/09 11:56:26;;;;;;;5.67;2.30;;;19.00;99.90;;;;;;5034454;28;20203;-71
2023/03/09 11:59:14;;;;;;;6.80;2.53;;;19.00;99.90;;;;;;5039399;28;20192;-71
2023/03/09 12:01:51;;;;;;;5.00;2.20;;;18.90;99.90;;;;;;5035017;28;20204;-71
2023/03/09 12:04:19;;;;;;;5.20;1.80;;;18.90;99.90;;;;;;5052149;28;20721;-71
2023/03/09 12:07:05;;;;;;;6.27;2.20;;;18.90;99.90;;;;;;5052212;28;20394;-71
2023/03/09 12:09:53;;;;;;;8.40;1.77;;;18.90;99.90;;;;;;5053125;28;20257;-72
2023/03/09 12:12:30;;;;;;;7.17;1.90;;;18.90;99.90;;;;;;5050385;28;20189;-70
2023/03/09 12:15:37;;;;;;;6.67;1.93;;;18.80;99.90;;;;;;5047058;28;20252;-70
2023/03/09 12:18:16;;;;;;;6.60;2.13;;;18.80;99.90;;;;;;5053533;28;20562;-72
2023/03/09 12:20:54;;;;;;;8.77;2.13;;;18.70;99.90;;;;;;5053787;28;20222;-72
2023/03/09 12:23:40;;;;;;;4.53;2.40;;;18.60;99.90;;;;;;5044468;28;20187;-70
2023/03/09 12:26:29;;;;;;;5.43;2.00;;;18.60;99.90;;;;;;5052741;28;20278;-71
2023/03/09 12:29:29;;;;;;;5.03;2.10;;;18.60;99.90;;;;;;5053878;28;20672;-69
2023/03/09 12:32:18;;;;;;;5.80;1.90;;;18.60;99.90;;;;;;5048815;28;20203;-70
2023/03/09 12:34:47;;;;;;;7.20;2.53;;;18.60;99.90;;;;;;5045074;28;20539;-71
2023/03/09 12:37:36;;;;;;;3.20;1.80;;;18.50;99.90;;;;;;5051494;28;20658;-72
2023/03/09 12:40:29;;;;;;;8.43;2.40;;;18.50;99.90;;;;;;5051063;28;20601;-72
2023/03/09 12:43:16;;;;;;;5.70;2.17;;;18.50;99.90;;;;;;5053642;28;20272;-70
2023/03/09 12:45:46;;;;;;;7.27;2.07;;;18.40;99.90;;;;;;5038520;28;20195;-70
2023/03/09 12:48:24;;;;;;;7.97;2.03;;;18.50;99.90;;;;;;5032321;28;20232;-70
2023/03/09 12:51:03;;;;;;;5.47;2.20;;;18.40;99.90;;;;;;5049361;28;20181;-71
2023/03/09 12:53:32;;;;;;;6.00;1.70;;;18.40;99.90;;;;;;5033937;28;20177;-70
2023/03/09 12:56:18;;;;;;;7.13;2.13;;;18.40;99.90;;;;;;5034232;28;20178;-70
2023/03/09 12:58:54;;;;;;;5.77;2.03;;;18.40;99.90;;;;;;5053953;28;20168;-70
2023/03/09 13:01:21;;;;;;;5.50;2.13;;;18.30;99.90;;;;;;5053046;28;20212;-70
2023/03/09 13:03:56;;;;;;;5.23;1.90;;;18.20;99.90;;;;;;5052989;28;20192;-70
2023/03/09 13:06:34;;;;;;;8.97;2.37;;;18.30;99.90;;;;;;5052707;28;20194;-70
2023/03/09 13:09:17;;;;;;;8.03;2.13;;;18.20;99.90;;;;;;5050259;28;20673;-70
2023/03/09 13:11:57;;;;;;;7.67;2.67;;;18.30;99.90;;;;;;5048686;28;20719;-71
2023/03/09 13:14:27;;;;;;;4.17;1.87;;;18.20;99.90;;;;;;5033625;28;20200;-70
2023/03/09 13:17:04;;;;;;;5.33;1.97;;;18.20;99.90;;;;;;5033337;28;20217;-70
2023/03/09 13:19:52;;;;;;;6.80;2.00;;;18.20;99.90;;;;;;5048401;28;20682;-71
2023/03/09 13:22:26;;;;;;;6.30;2.20;;;18.20;99.90;;;;;;5053395;28;20189;-70
2023/03/09 13:25:35;;;;;;;5.63;1.73;;;18.20;99.90;;;;;;5053628;28;20176;-70
2023/03/09 13:28:17;;;;;;;5.40;2.10;;;18.10;99.90;;;;;;4994974;28;20689;-70
2023/03/09 13:30:47;;;;;;;11.00;2.60;;;18.10;99.90;;;;;;5011339;28;20185;-70